Savannah Hilton Head International Airport
KSAV : now visible

Airfield :











YOU CAN JOIN US ON...

 
LOGIN :

Register | Disclaimer

   EN    FR    IT 

 









Legend :    VFR   Marginal VFR   IFR   Intensive IFR   Very Intensive IFR
Visi :
Ceiling :
>= 8 km
>= 3000ft
5 to 8 km
1000 to 3000 ft
1500m to 5 km
500 to 1000 ft
800 to 1500m
200 to 500 ft
< 800m
< 200 ft
Symbols :   Thunderstorms  Fog  Heavy snow  Heavy precipitations  Wind > 20 kt






- Airport Elevation : 50 ft
- IATA code : SAV


KSAV - Savannah Hilton Head International

CURRENT METAR :
  • 220053Z 24010KT 10SM BKN017 OVC025 17/13 A2992 RMK AO2 SLP132 T01670133

EXPIRED METARs :
  • 220024Z 24013G19KT 10SM SCT017 BKN028 OVC032 17/13 A2993 RMK AO2 T01670128
  • 212353Z 24008KT 10SM OVC032 17/13 A2993 RMK AO2 SLP135 60000 T01670128 10200 20167 55003
  • 212253Z 23010KT 10SM BKN032 OVC050 17/12 A2993 RMK AO2 RAB30E40 SLP134 P0000 T01670122

TAF KSAV
Valid from the 22 at 00:00 until the 23 at 00:00 UTC


212322Z 2200/2224 23008KT P6SM OVC025 WS020/26040KT
FM220300 24008KT P6SM VCSH FEW008 OVC015
FM220600 26004KT 5SM -RA BR SCT005 OVC008
FM221100 28005KT 3SM RA BR OVC004
KZJX FIR / North America



MET'MAP, your aeronautical weather chart ! - Copyright ORBIFLY December 2007 - Disclaimer

ORBIFLY MET'MAP TEAM :

Programming & Development : Alexandra Zaïnal
Concept & original design : Baudouin d'Aumeries
Assistance for programming : Marc-Olivier Méhu
Technical & hardware support : Manuel Goepfert

Contact : metmap@orbifly.com




SOURCES & CREDITS :

   NOAA       Earth
Advisory